createdAt,value
2022-12-05T00:01:27.414Z,18.40
2022-12-05T00:03:57.940Z,18.67
2022-12-05T00:06:26.731Z,19.02
2022-12-05T00:08:54.105Z,19.10
2022-12-05T00:11:26.312Z,18.33
2022-12-05T00:13:55.406Z,18.80
2022-12-05T00:16:24.422Z,18.20
2022-12-05T00:18:51.994Z,17.90
2022-12-05T00:21:24.656Z,19.08
2022-12-05T00:23:52.713Z,18.00
2022-12-05T00:26:20.430Z,18.42
2022-12-05T00:28:47.486Z,18.17
2022-12-05T00:31:17.546Z,17.30
2022-12-05T00:33:45.261Z,17.90
2022-12-05T00:36:18.027Z,16.40
2022-12-05T00:38:45.067Z,17.10
2022-12-05T00:41:20.811Z,17.83
2022-12-05T00:43:47.821Z,17.35
2022-12-05T00:46:18.858Z,16.65
2022-12-05T00:48:46.161Z,17.77
2022-12-05T00:51:19.291Z,16.77
2022-12-05T00:53:47.362Z,17.08
2022-12-05T00:56:17.843Z,16.37
2022-12-05T00:58:45.286Z,16.20
2022-12-05T01:01:13.708Z,17.00
2022-12-05T01:03:41.701Z,16.23
2022-12-05T01:06:10.622Z,16.42
2022-12-05T01:08:37.885Z,15.88
2022-12-05T01:11:06.263Z,16.42
2022-12-05T01:13:33.863Z,16.00
2022-12-05T01:16:00.847Z,16.38
2022-12-05T01:18:27.939Z,15.80
2022-12-05T01:20:55.339Z,16.80
2022-12-05T01:23:23.003Z,16.58
2022-12-05T01:25:52.039Z,16.23
2022-12-05T01:28:19.041Z,15.80
2022-12-05T01:30:47.955Z,14.60
2022-12-05T01:33:14.738Z,14.32
2022-12-05T01:35:42.457Z,14.30
2022-12-05T01:38:11.611Z,15.27
2022-12-05T01:40:39.282Z,13.32
2022-12-05T01:43:18.541Z,13.50
2022-12-05T01:45:46.731Z,13.30
2022-12-05T01:48:22.828Z,12.95
2022-12-05T01:50:51.043Z,13.48
2022-12-05T01:53:19.250Z,13.10
2022-12-05T01:55:48.562Z,12.67
2022-12-05T01:58:16.698Z,12.43
2022-12-05T02:00:43.826Z,12.63
2022-12-05T02:03:19.243Z,13.30
2022-12-05T02:05:50.971Z,13.90
2022-12-05T02:08:18.643Z,15.43
2022-12-05T02:10:56.114Z,14.52
2022-12-05T02:13:32.450Z,12.00
2022-12-05T02:16:07.267Z,12.90
2022-12-05T02:18:58.397Z,11.70
2022-12-05T02:22:06.229Z,11.23
2022-12-05T02:25:03.587Z,11.13
2022-12-05T02:28:00.902Z,10.53
2022-12-05T02:30:38.475Z,11.10
2022-12-05T02:33:36.313Z,11.63
2022-12-05T02:36:27.913Z,12.35
2022-12-05T02:39:24.071Z,11.95
2022-12-05T02:41:56.665Z,11.45
2022-12-05T02:44:40.051Z,11.32
2022-12-05T02:47:09.063Z,11.83
2022-12-05T02:49:37.698Z,12.30
2022-12-05T02:52:15.263Z,11.73
2022-12-05T02:54:46.111Z,11.45
2022-12-05T02:57:14.778Z,12.40
2022-12-05T02:59:41.794Z,12.55
2022-12-05T03:02:22.629Z,12.37
2022-12-05T03:04:49.502Z,12.47
2022-12-05T03:07:17.519Z,12.02
2022-12-05T03:09:51.298Z,11.80
2022-12-05T03:12:31.027Z,11.52
2022-12-05T03:15:14.462Z,11.90
2022-12-05T03:18:10.211Z,13.63
2022-12-05T03:21:04.139Z,12.75
2022-12-05T03:23:33.696Z,12.67
2022-12-05T03:26:31.451Z,12.68
2022-12-05T03:29:24.363Z,12.63
2022-12-05T03:32:07.619Z,12.60
2022-12-05T03:34:50.059Z,11.60
2022-12-05T03:37:28.078Z,11.45
2022-12-05T03:40:11.563Z,11.32
2022-12-05T03:42:45.213Z,11.50
2022-12-05T03:45:15.294Z,11.30
2022-12-05T03:47:57.504Z,11.25
2022-12-05T03:50:27.343Z,12.48
2022-12-05T03:53:26.059Z,11.30
2022-12-05T03:56:04.279Z,12.07
2022-12-05T03:58:39.996Z,11.93
2022-12-05T04:01:09.242Z,12.00
2022-12-05T04:03:46.637Z,11.27
2022-12-05T04:06:25.860Z,12.30
2022-12-05T04:09:17.126Z,12.27
2022-12-05T04:11:51.487Z,12.10
2022-12-05T04:14:24.081Z,10.43
2022-12-05T04:17:06.966Z,9.90
2022-12-05T04:19:55.618Z,7.90
2022-12-05T04:22:24.985Z,6.30
2022-12-05T04:25:13.469Z,7.13
2022-12-05T04:28:01.327Z,6.70
2022-12-05T04:30:37.129Z,5.90
2022-12-05T04:33:12.307Z,5.93
2022-12-05T04:35:54.979Z,6.68
2022-12-05T04:38:33.380Z,6.00
2022-12-05T04:41:11.465Z,6.10
2022-12-05T04:43:42.026Z,6.30
2022-12-05T04:46:11.878Z,6.10
2022-12-05T04:48:41.944Z,6.20
2022-12-05T04:51:12.850Z,5.95
2022-12-05T04:53:42.608Z,6.32
2022-12-05T04:56:11.294Z,6.55
2022-12-05T04:58:38.335Z,5.97
2022-12-05T05:01:13.390Z,5.93
2022-12-05T05:03:52.752Z,6.10
2022-12-05T05:06:19.760Z,6.60
2022-12-05T05:08:52.196Z,6.10
2022-12-05T05:11:20.954Z,7.20
2022-12-05T05:13:48.193Z,6.20
2022-12-05T05:16:29.520Z,6.70
2022-12-05T05:18:56.974Z,6.30
2022-12-05T05:21:26.173Z,6.95
2022-12-05T05:23:53.805Z,6.47
2022-12-05T05:26:21.878Z,6.82
2022-12-05T05:28:49.743Z,6.35
2022-12-05T05:31:18.238Z,5.90
2022-12-05T05:33:48.479Z,6.70
2022-12-05T05:36:15.718Z,6.60
2022-12-05T05:38:45.985Z,6.75
2022-12-05T05:41:15.642Z,7.38
2022-12-05T05:43:43.397Z,7.32
2022-12-05T05:46:11.314Z,7.70
2022-12-05T05:48:38.611Z,7.50
2022-12-05T05:51:07.563Z,7.57
2022-12-05T05:53:34.846Z,7.93
2022-12-05T05:56:06.359Z,8.40
2022-12-05T05:58:33.609Z,8.15
2022-12-05T06:01:22.719Z,8.80
2022-12-05T06:03:50.948Z,8.77
2022-12-05T06:06:18.708Z,9.02
2022-12-05T06:08:46.361Z,9.10
2022-12-05T06:11:25.721Z,8.95
2022-12-05T06:13:56.910Z,8.90
2022-12-05T06:16:24.147Z,9.10
2022-12-05T06:18:52.278Z,9.15
2022-12-05T06:21:19.954Z,8.32
2022-12-05T06:23:46.995Z,8.48
2022-12-05T06:26:18.642Z,8.20
2022-12-05T06:28:45.880Z,7.63
2022-12-05T06:31:18.472Z,8.50
2022-12-05T06:33:45.405Z,8.50
2022-12-05T06:36:15.197Z,8.30
2022-12-05T06:38:42.702Z,9.07
2022-12-05T06:41:13.557Z,9.10
2022-12-05T06:43:40.637Z,8.20
2022-12-05T06:46:09.175Z,8.65
2022-12-05T06:48:36.681Z,8.43
2022-12-05T06:51:03.848Z,8.30
2022-12-05T06:53:30.926Z,8.40
2022-12-05T06:56:03.823Z,8.10
2022-12-05T06:58:31.227Z,8.30
2022-12-05T07:01:16.851Z,8.80
2022-12-05T07:03:48.934Z,8.43
2022-12-05T07:06:16.511Z,7.90
2022-12-05T07:08:43.845Z,7.10
2022-12-05T07:11:11.096Z,6.60
2022-12-05T07:13:38.139Z,5.90
2022-12-05T07:16:07.380Z,5.70
2022-12-05T07:18:35.820Z,5.60
2022-12-05T07:21:13.445Z,4.93
2022-12-05T07:23:42.170Z,4.88
2022-12-05T07:26:11.706Z,5.15
2022-12-05T07:28:38.882Z,5.10
2022-12-05T07:31:11.519Z,5.20
2022-12-05T07:33:39.469Z,4.95
2022-12-05T07:36:09.290Z,4.50
2022-12-05T07:38:36.707Z,4.10
2022-12-05T07:41:13.077Z,4.10
2022-12-05T07:43:41.822Z,4.00
2022-12-05T07:46:11.448Z,3.50
2022-12-05T07:48:39.407Z,3.30
2022-12-05T07:51:07.588Z,3.25
2022-12-05T07:53:35.110Z,3.00
2022-12-05T07:56:04.054Z,2.85
2022-12-05T07:58:32.119Z,2.90
2022-12-05T08:01:07.177Z,2.50
2022-12-05T08:03:35.112Z,2.60
2022-12-05T08:06:03.730Z,2.30
2022-12-05T08:08:30.708Z,2.73
2022-12-05T08:11:02.492Z,2.10
2022-12-05T08:13:29.693Z,2.20
2022-12-05T08:16:00.373Z,2.00
2022-12-05T08:18:27.768Z,2.10
2022-12-05T08:20:54.694Z,3.33
2022-12-05T08:23:21.628Z,2.50
2022-12-05T08:25:48.653Z,2.40
2022-12-05T08:28:16.084Z,16.08
2022-12-05T08:30:43.097Z,2.40
2022-12-05T08:33:10.100Z,2.20
2022-12-05T08:35:38.148Z,2.40
2022-12-05T08:38:05.175Z,2.40
2022-12-05T08:40:32.227Z,2.33
2022-12-05T08:42:59.254Z,2.08
2022-12-05T08:45:26.271Z,1.98
2022-12-05T08:47:53.226Z,2.00
2022-12-05T08:50:20.103Z,1.70
2022-12-05T08:52:47.130Z,1.60
2022-12-05T08:55:14.039Z,1.55
2022-12-05T08:57:40.975Z,2.07
2022-12-05T09:00:08.799Z,1.97
2022-12-05T09:02:35.838Z,1.80
2022-12-05T09:05:19.428Z,3.17
2022-12-05T09:07:49.874Z,2.83
2022-12-05T09:10:17.252Z,7.63
2022-12-05T09:12:44.398Z,2.30
2022-12-05T09:15:12.759Z,1.80
2022-12-05T09:17:39.947Z,2.50
2022-12-05T09:20:07.568Z,2.23
2022-12-05T09:22:34.806Z,1.90
2022-12-05T09:25:01.788Z,2.10
2022-12-05T09:27:29.347Z,2.10
2022-12-05T09:29:56.362Z,2.00
2022-12-05T09:32:23.355Z,1.97
2022-12-05T09:34:50.340Z,1.90
2022-12-05T09:37:37.987Z,2.15
2022-12-05T09:40:05.911Z,2.28
2022-12-05T09:42:38.120Z,2.10
2022-12-05T09:45:25.877Z,2.28
2022-12-05T09:48:12.175Z,2.13
2022-12-05T09:50:46.905Z,2.20
2022-12-05T09:53:25.471Z,1.83
2022-12-05T09:56:05.715Z,1.90
2022-12-05T09:58:49.017Z,1.90
2022-12-05T10:01:28.016Z,2.17
2022-12-05T10:04:28.297Z,2.30
2022-12-05T10:07:01.036Z,1.77
2022-12-05T10:09:33.783Z,2.00
2022-12-05T10:12:06.879Z,2.00
2022-12-05T10:15:00.174Z,1.90
2022-12-05T10:17:37.027Z,2.00
2022-12-05T10:20:18.880Z,2.00
2022-12-05T10:22:57.032Z,2.00
2022-12-05T10:25:27.664Z,1.90
2022-12-05T10:28:02.844Z,2.33
2022-12-05T10:30:36.098Z,2.20
2022-12-05T10:33:13.315Z,2.25
2022-12-05T10:35:41.583Z,2.30
2022-12-05T10:38:13.223Z,2.10
2022-12-05T10:40:46.892Z,2.80
2022-12-05T10:43:18.787Z,2.40
2022-12-05T10:45:48.102Z,2.80
2022-12-05T10:48:18.086Z,2.10
2022-12-05T10:50:48.600Z,2.58
2022-12-05T10:53:28.584Z,2.30
2022-12-05T10:56:28.644Z,2.27
2022-12-05T10:58:56.455Z,2.10
2022-12-05T11:01:25.622Z,2.20
2022-12-05T11:04:02.454Z,2.40
2022-12-05T11:06:32.002Z,2.40
2022-12-05T11:09:04.725Z,2.00
2022-12-05T11:11:33.880Z,2.60
2022-12-05T11:14:04.434Z,2.10
2022-12-05T11:16:31.546Z,2.40
2022-12-05T11:19:18.148Z,1.80
2022-12-05T11:21:45.168Z,2.30
2022-12-05T11:24:26.116Z,2.15
2022-12-05T11:26:53.495Z,2.10
2022-12-05T11:29:36.575Z,2.10
2022-12-05T11:32:18.678Z,2.40
2022-12-05T11:34:54.766Z,2.53
2022-12-05T11:37:51.415Z,2.50
2022-12-05T11:40:39.874Z,2.75
2022-12-05T11:43:28.165Z,2.60
2022-12-05T11:46:07.264Z,3.10
2022-12-05T11:49:00.277Z,2.70
2022-12-05T11:51:46.102Z,2.80
2022-12-05T11:54:48.874Z,2.90
2022-12-05T11:57:30.474Z,3.50
2022-12-05T12:00:18.159Z,3.35
2022-12-05T12:03:10.237Z,3.80
2022-12-05T12:06:07.907Z,3.63
2022-12-05T12:09:22.416Z,3.50
2022-12-05T12:12:06.388Z,3.50
2022-12-05T12:14:39.220Z,3.15
2022-12-05T12:17:09.620Z,3.20
2022-12-05T12:19:45.841Z,3.65
2022-12-05T12:22:26.945Z,3.50
2022-12-05T12:24:59.753Z,3.60
2022-12-05T12:27:53.778Z,3.50
2022-12-05T12:30:34.259Z,3.60
2022-12-05T12:33:16.553Z,4.00
2022-12-05T12:35:43.511Z,3.70
2022-12-05T12:38:35.455Z,3.53
2022-12-05T12:41:41.873Z,3.60
2022-12-05T12:44:36.344Z,3.67
2022-12-05T12:47:23.498Z,4.00
2022-12-05T12:50:14.068Z,4.20
2022-12-05T12:53:01.237Z,4.00
2022-12-05T12:55:39.681Z,3.92
2022-12-05T12:58:18.891Z,4.40
2022-12-05T13:01:11.682Z,4.90
2022-12-05T13:04:02.922Z,4.63
2022-12-05T13:06:40.693Z,4.90
2022-12-05T13:09:16.985Z,5.00
2022-12-05T13:11:48.457Z,5.03
2022-12-05T13:14:19.767Z,5.00
2022-12-05T13:16:50.841Z,5.00
2022-12-05T13:19:42.487Z,5.30
2022-12-05T13:22:10.903Z,5.80
2022-12-05T13:24:38.042Z,5.40
2022-12-05T13:27:08.042Z,6.00
2022-12-05T13:29:48.215Z,6.20
2022-12-05T13:32:27.122Z,5.20
2022-12-05T13:34:56.046Z,5.47
2022-12-05T13:37:45.011Z,5.07
2022-12-05T13:40:42.195Z,4.97
2022-12-05T13:43:10.618Z,4.70
2022-12-05T13:45:38.254Z,4.40
2022-12-05T13:48:20.137Z,4.60
2022-12-05T13:50:52.697Z,4.80
2022-12-05T13:53:35.366Z,4.80
2022-12-05T13:56:22.256Z,4.90
2022-12-05T13:58:52.525Z,5.10
2022-12-05T14:01:28.285Z,5.00
2022-12-05T14:03:58.605Z,4.70
2022-12-05T14:06:38.166Z,4.73
2022-12-05T14:09:16.954Z,4.82
2022-12-05T14:12:12.323Z,4.25
2022-12-05T14:14:57.468Z,4.47
2022-12-05T14:17:30.426Z,4.32
2022-12-05T14:20:16.140Z,3.50
2022-12-05T14:23:04.173Z,3.40
2022-12-05T14:25:59.549Z,3.45
2022-12-05T14:28:48.120Z,3.33
2022-12-05T14:31:24.035Z,3.30
2022-12-05T14:34:32.840Z,2.80
2022-12-05T14:37:27.350Z,3.08
2022-12-05T14:39:58.172Z,3.70
2022-12-05T14:42:35.547Z,3.70
2022-12-05T14:45:20.542Z,3.10
2022-12-05T14:47:53.463Z,2.90
2022-12-05T14:50:40.652Z,3.22
2022-12-05T14:53:25.586Z,3.10
2022-12-05T14:56:07.891Z,3.00
2022-12-05T14:58:57.006Z,3.17
2022-12-05T15:01:32.623Z,3.40
2022-12-05T15:04:02.619Z,3.30
2022-12-05T15:06:31.984Z,3.17
2022-12-05T15:09:35.487Z,4.00
2022-12-05T15:11:52.890Z,3.60
2022-12-05T15:14:23.327Z,3.47
2022-12-05T15:16:53.830Z,3.63
2022-12-05T15:19:30.076Z,3.58
2022-12-05T15:22:02.594Z,3.20
2022-12-05T15:24:38.690Z,2.90
2022-12-05T15:27:11.599Z,3.20
2022-12-05T15:29:41.192Z,3.13
2022-12-05T15:32:11.077Z,4.00
2022-12-05T15:34:56.836Z,3.40
2022-12-05T15:37:29.566Z,3.50
2022-12-05T15:40:06.159Z,3.73
2022-12-05T15:42:45.826Z,3.70
2022-12-05T15:45:13.363Z,3.95
2022-12-05T15:47:41.015Z,3.90
2022-12-05T15:50:13.699Z,4.50
2022-12-05T15:53:19.517Z,5.40
2022-12-05T15:55:49.590Z,5.78
2022-12-05T15:58:27.705Z,5.50
2022-12-05T16:00:58.896Z,4.40
2022-12-05T16:03:55.017Z,4.38
2022-12-05T16:06:24.659Z,3.90
2022-12-05T16:08:52.316Z,4.80
2022-12-05T16:11:19.980Z,12.75
2022-12-05T16:13:54.828Z,8.48
2022-12-05T16:16:25.821Z,6.35
2022-12-05T16:18:59.044Z,4.90
2022-12-05T16:21:37.844Z,4.80
2022-12-05T16:24:19.539Z,4.80
2022-12-05T16:27:07.139Z,5.20
2022-12-05T16:29:35.832Z,5.43
2022-12-05T16:32:05.384Z,5.13
2022-12-05T16:34:33.966Z,4.45
2022-12-05T16:37:01.005Z,4.50
2022-12-05T16:39:28.863Z,4.40
2022-12-05T16:41:56.281Z,4.40
2022-12-05T16:44:28.809Z,4.80
2022-12-05T16:46:56.726Z,4.55
2022-12-05T16:49:42.668Z,4.60
2022-12-05T16:52:14.926Z,4.65
2022-12-05T16:54:45.952Z,5.25
2022-12-05T16:57:15.354Z,8.50
2022-12-05T16:59:43.800Z,9.10
2022-12-05T17:02:15.868Z,9.30
2022-12-05T17:04:43.345Z,9.60
2022-12-05T17:07:10.639Z,5.50
2022-12-05T17:09:37.623Z,4.47
2022-12-05T17:12:17.264Z,3.85
2022-12-05T17:14:44.272Z,3.70
2022-12-05T17:17:14.241Z,3.70
2022-12-05T17:19:41.143Z,3.60
2022-12-05T17:22:08.222Z,3.50
2022-12-05T17:24:35.318Z,3.63
2022-12-05T17:27:02.659Z,3.42
2022-12-05T17:29:35.477Z,3.80
2022-12-05T17:32:02.910Z,4.10
2022-12-05T17:34:29.964Z,3.90
2022-12-05T17:36:56.889Z,3.92
2022-12-05T17:39:28.312Z,3.90
2022-12-05T17:41:55.912Z,4.22
2022-12-05T17:44:22.965Z,4.70
2022-12-05T17:46:50.056Z,4.80
2022-12-05T17:49:17.910Z,4.90
2022-12-05T17:52:13.580Z,4.10
2022-12-05T17:54:32.409Z,3.90
2022-12-05T17:57:00.566Z,3.40
2022-12-05T17:59:27.421Z,4.80
2022-12-05T18:01:54.392Z,3.78
2022-12-05T18:04:23.577Z,3.33
2022-12-05T18:06:51.262Z,3.60
2022-12-05T18:09:18.334Z,3.60
2022-12-05T18:11:45.221Z,3.50
2022-12-05T18:14:12.233Z,3.50
2022-12-05T18:16:39.196Z,3.50
2022-12-05T18:19:08.220Z,4.03
2022-12-05T18:21:35.660Z,4.00
2022-12-05T18:24:02.725Z,4.80
2022-12-05T18:26:29.701Z,5.30
2022-12-05T18:28:57.437Z,5.40
2022-12-05T18:31:24.603Z,5.47
2022-12-05T18:33:51.830Z,5.53
2022-12-05T18:36:21.665Z,5.70
2022-12-05T18:38:53.591Z,4.65
2022-12-05T18:41:23.427Z,5.03
2022-12-05T18:43:51.280Z,5.10
2022-12-05T18:46:18.453Z,4.73
2022-12-05T18:48:47.796Z,4.75
2022-12-05T18:51:20.890Z,4.68
2022-12-05T18:53:53.283Z,5.00
2022-12-05T18:56:26.629Z,4.57
2022-12-05T18:59:00.150Z,4.50
2022-12-05T19:01:28.400Z,4.95
2022-12-05T19:03:57.607Z,4.80
2022-12-05T19:06:27.139Z,4.32
2022-12-05T19:09:02.054Z,4.50
2022-12-05T19:11:29.469Z,5.25
2022-12-05T19:14:00.869Z,5.15
2022-12-05T19:16:29.584Z,6.18
2022-12-05T19:18:58.830Z,5.38
2022-12-05T19:21:27.601Z,7.95
2022-12-05T19:23:55.743Z,13.10
2022-12-05T19:26:23.420Z,7.50
2022-12-05T19:28:50.896Z,5.65
2022-12-05T19:31:20.699Z,6.60
2022-12-05T19:33:53.048Z,5.90
2022-12-05T19:36:44.298Z,4.50
2022-12-05T19:39:16.747Z,3.90
2022-12-05T19:41:43.992Z,4.50
2022-12-05T19:44:11.038Z,3.83
2022-12-05T19:46:38.119Z,4.50
2022-12-05T19:49:08.374Z,4.10
2022-12-05T19:51:35.754Z,4.90
2022-12-05T19:54:04.267Z,5.30
2022-12-05T19:56:33.582Z,4.57
2022-12-05T19:59:01.060Z,6.00
2022-12-05T20:01:36.608Z,6.40
2022-12-05T20:04:09.633Z,5.70
2022-12-05T20:06:48.630Z,6.13
2022-12-05T20:09:18.113Z,5.85
2022-12-05T20:11:52.632Z,5.60
2022-12-05T20:14:22.007Z,5.32
2022-12-05T20:16:49.088Z,5.10
2022-12-05T20:19:16.102Z,4.72
2022-12-05T20:21:44.492Z,4.07
2022-12-05T20:24:12.124Z,4.47
2022-12-05T20:26:41.719Z,5.15
2022-12-05T20:29:09.389Z,6.70
2022-12-05T20:31:41.617Z,5.68
2022-12-05T20:34:10.731Z,5.22
2022-12-05T20:36:37.708Z,5.00
2022-12-05T20:39:07.568Z,4.25
2022-12-05T20:41:34.800Z,4.57
2022-12-05T20:44:04.313Z,4.60
2022-12-05T20:46:32.249Z,4.68
2022-12-05T20:48:59.678Z,4.55
2022-12-05T20:51:31.800Z,4.25
2022-12-05T20:54:00.725Z,4.20
2022-12-05T20:56:32.806Z,4.30
2022-12-05T20:59:02.179Z,4.50
2022-12-05T21:01:31.726Z,3.90
2022-12-05T21:03:59.845Z,3.88
2022-12-05T21:06:38.145Z,3.70
2022-12-05T21:09:15.014Z,3.72
2022-12-05T21:11:45.488Z,3.72
2022-12-05T21:14:12.812Z,4.10
2022-12-05T21:16:39.717Z,4.40
2022-12-05T21:19:06.762Z,4.80
2022-12-05T21:21:34.355Z,4.90
2022-12-05T21:24:03.171Z,5.90
2022-12-05T21:26:32.554Z,5.90
2022-12-05T21:29:00.623Z,5.90
2022-12-05T21:31:33.854Z,6.45
2022-12-05T21:34:13.166Z,6.15
2022-12-05T21:36:40.342Z,7.82
2022-12-05T21:39:07.583Z,7.32
2022-12-05T21:41:35.102Z,7.25
2022-12-05T21:44:02.174Z,7.18
2022-12-05T21:46:29.363Z,6.68
2022-12-05T21:48:56.543Z,6.60
2022-12-05T21:51:24.289Z,5.60
2022-12-05T21:53:52.051Z,4.72
2022-12-05T21:56:22.992Z,4.80
2022-12-05T21:58:50.227Z,4.20
2022-12-05T22:01:19.998Z,4.32
2022-12-05T22:03:47.466Z,4.15
2022-12-05T22:06:15.437Z,16.63
2022-12-05T22:08:43.158Z,8.60
2022-12-05T22:11:12.734Z,4.03
2022-12-05T22:13:40.836Z,4.97
2022-12-05T22:16:08.634Z,4.63
2022-12-05T22:18:35.983Z,4.80
2022-12-05T22:21:07.875Z,4.30
2022-12-05T22:23:35.354Z,3.90
2022-12-05T22:26:06.785Z,4.03
2022-12-05T22:28:34.678Z,3.88
2022-12-05T22:31:04.892Z,4.85
2022-12-05T22:33:32.335Z,3.83
2022-12-05T22:36:01.302Z,5.90
2022-12-05T22:38:30.547Z,4.97
2022-12-05T22:41:00.051Z,4.78
2022-12-05T22:43:28.982Z,5.00
2022-12-05T22:45:56.224Z,5.80
2022-12-05T22:48:23.755Z,5.20
2022-12-05T22:50:52.901Z,5.20
2022-12-05T22:53:22.244Z,5.30
2022-12-05T22:55:49.726Z,5.00
2022-12-05T22:58:17.532Z,4.80
2022-12-05T23:00:44.818Z,5.13
2022-12-05T23:03:12.445Z,4.50
2022-12-05T23:05:41.503Z,5.10
2022-12-05T23:08:09.178Z,5.10
2022-12-05T23:10:37.986Z,4.70
2022-12-05T23:13:08.360Z,4.70
2022-12-05T23:15:37.872Z,4.37
2022-12-05T23:18:05.028Z,4.60
2022-12-05T23:20:32.480Z,4.40
2022-12-05T23:23:00.928Z,4.30
2022-12-05T23:25:27.780Z,4.45
2022-12-05T23:27:54.691Z,4.47
2022-12-05T23:30:21.584Z,3.83
2022-12-05T23:32:48.616Z,4.40
2022-12-05T23:35:15.583Z,3.90
2022-12-05T23:37:42.745Z,4.10
2022-12-05T23:40:10.102Z,3.60
2022-12-05T23:42:37.085Z,3.60
2022-12-05T23:45:04.406Z,3.78
2022-12-05T23:47:31.404Z,4.13
2022-12-05T23:49:58.473Z,4.20
2022-12-05T23:52:25.696Z,4.10
2022-12-05T23:54:52.624Z,4.00
2022-12-05T23:57:19.595Z,3.95
2022-12-05T23:59:46.759Z,3.90
